This is the latest recevied weather packets stored in our database for station/object K4CRS-13. If no packets are shown the sender has not sent any weather packets the latest 10 day(s).
| Time | Temp. | Humidity | Pressure | Rain* | Wind** | Luminosity | Snow |
|---|---|---|---|---|---|---|---|
| 1787774896 | 21.11° C | 96% | 1051.6 hPa | 19.81 mm | - | 52 W/m² | - |
| 1787774595 | 21.67° C | 96% | 1051.8 hPa | 24.64 mm | - | 46 W/m² | - |
| 1787774295 | 21.67° C | 95% | 1051.8 hPa | 42.67 mm | - | 43 W/m² | - |
| 1787773994 | 22.78° C | 92% | 1052 hPa | 34.8 mm | - | 39 W/m² | - |
| 1787773693 | 25° C | 83% | 1051.2 hPa | 0 mm | - | 29 W/m² | - |
| 1787773389 | 25.56° C | 79% | 1051.1 hPa | 0 mm | - | 39 W/m² | - |
| 1787773083 | 28.89° C | 73% | 1051.2 hPa | 0 mm | - | 8 W/m² | - |
| 1787772779 | 31.11° C | 68% | 1050.4 hPa | 0 mm | - | 34 W/m² | - |
| 1787772478 | 31.67° C | 66% | 1050.2 hPa | 0 mm | - | 78 W/m² | - |
| 1787772177 | 31.67° C | 64% | 1050.1 hPa | 0 mm | - | 120 W/m² | - |
| 1787771877 | 32.22° C | 64% | 1050.2 hPa | 0 mm | - | 183 W/m² | - |
| 1787771576 | 32.22° C | 63% | 1050 hPa | 0 mm | - | 324 W/m² | - |
| 1787771270 | 32.78° C | 62% | 1050.1 hPa | 0 mm | - | 342 W/m² | - |
| 1787770966 | 32.78° C | 61% | 1050.1 hPa | 0 mm | - | 286 W/m² | - |
| 1787770665 | 33.33° C | 59% | 1050.4 hPa | 0 mm | - | 382 W/m² | - |
| 1787770359 | 33.33° C | 59% | 1050.2 hPa | 0 mm | - | 439 W/m² | - |
| 1787770058 | 33.89° C | 58% | 1050.1 hPa | 0 mm | - | 780 W/m² | - |
| 1787769753 | 32.78° C | 61% | 1050.3 hPa | 0 mm | - | 697 W/m² | - |
| 1787769451 | 31.67° C | 64% | 1050.2 hPa | 0 mm | - | 659 W/m² | - |
| 1787769147 | 31.67° C | 65% | 1050.6 hPa | 0 mm | - | 652 W/m² | - |
| 1787768841 | 31.11° C | 64% | 1050.7 hPa | 0 mm | - | 281 W/m² | - |
| 1787768538 | 31.67° C | 64% | 1050.6 hPa | 0 mm | - | 162 W/m² | - |
| 1787768233 | 31.67° C | 63% | 1050.7 hPa | 0 mm | - | 237 W/m² | - |
| 1787767929 | 32.78° C | 60% | 1050.8 hPa | 0 mm | - | 500 W/m² | - |
| 1787767624 | 33.33° C | 59% | 1051 hPa | 0 mm | - | 529 W/m² | - |
* Rain latest hour (hover to see other rain measurements)
** Current wind speed in m/s (hover to see current wind gust speed)